Time;durP1;ratioP1;P1;durP2;ratioP2;P2;SDS_P1;SDS_P2;PMS_P1;PMS_P2;Temp;Humidity;BMP_temperature;BMP_pressure;BME280_temperature;BME280_humidity;BME280_pressure;Samples;Min_cycle;Max_cycle;Signal;HPM_P1;HPM_P2
2021/09/21 00:01:47;;;;;;;1.90;1.77;;;;;;;;;;5100422;27;20639;-85
2021/09/21 00:04:14;;;;;;;2.10;1.90;;;;;;;;;;5096714;28;20950;-87
2021/09/21 00:06:40;;;;;;;3.10;2.00;;;;;;;;;;5102189;27;20412;-87
2021/09/21 00:09:08;;;;;;;2.17;1.77;;;;;;;;;;5099926;27;20390;-87
2021/09/21 00:11:34;;;;;;;2.28;1.77;;;;;;;;;;5100492;28;20401;-86
2021/09/21 00:14:03;;;;;;;2.08;1.88;;;;;;;;;;5102224;28;20402;-85
2021/09/21 00:16:30;;;;;;;2.75;1.95;;;;;;;;;;5098773;28;20428;-87
2021/09/21 00:18:57;;;;;;;2.10;1.90;;;;;;;;;;5103210;28;20421;-87
2021/09/21 00:21:24;;;;;;;2.40;1.80;;;;;;;;;;5098944;28;20921;-85
2021/09/21 00:23:51;;;;;;;2.17;1.92;;;;;;;;;;5102998;28;20935;-87
2021/09/21 00:26:19;;;;;;;2.47;1.73;;;;;;;;;;5102093;28;20403;-87
2021/09/21 00:28:47;;;;;;;1.90;1.80;;;;;;;;;;5103207;28;21306;-86
2021/09/21 00:31:15;;;;;;;1.92;1.80;;;;;;;;;;5102413;28;20791;-86
2021/09/21 00:33:50;;;;;;;2.30;1.90;;;;;;;;;;5102158;28;20406;-85
2021/09/21 00:36:17;;;;;;;2.22;2.00;;;;;;;;;;5105744;28;20402;-86
2021/09/21 00:38:45;;;;;;;1.73;1.63;;;;;;;;;;5101752;28;20425;-86
2021/09/21 00:41:14;;;;;;;2.10;1.60;;;;;;;;;;5101100;28;20419;-85
2021/09/21 00:43:41;;;;;;;2.70;1.80;;;;;;;;;;5109638;28;20754;-85
2021/09/21 00:46:08;;;;;;;2.10;1.90;;;;;;;;;;5096305;28;20491;-85
2021/09/21 00:48:36;;;;;;;1.80;1.70;;;;;;;;;;5100796;28;20397;-87
2021/09/21 00:51:03;;;;;;;2.05;1.85;;;;;;;;;;5110088;27;20389;-86
2021/09/21 00:53:30;;;;;;;1.98;1.83;;;;;;;;;;5102819;27;20395;-86
2021/09/21 00:55:57;;;;;;;2.15;1.95;;;;;;;;;;5105330;27;20947;-85
2021/09/21 00:58:24;;;;;;;2.90;1.50;;;;;;;;;;5111508;27;20434;-85
2021/09/21 01:00:51;;;;;;;2.17;1.92;;;;;;;;;;5108689;27;20409;-85
2021/09/21 01:03:18;;;;;;;2.28;1.60;;;;;;;;;;5111703;27;20463;-85
2021/09/21 01:05:46;;;;;;;3.60;1.70;;;;;;;;;;5110276;27;20913;-86
2021/09/21 01:08:13;;;;;;;2.10;1.90;;;;;;;;;;5111928;27;20404;-85
2021/09/21 01:10:40;;;;;;;1.90;1.80;;;;;;;;;;5107637;27;20401;-86
2021/09/21 01:13:08;;;;;;;1.92;1.77;;;;;;;;;;5114889;27;20882;-87
2021/09/21 01:15:35;;;;;;;2.15;1.95;;;;;;;;;;5113641;27;20398;-87
2021/09/21 01:18:02;;;;;;;2.00;1.80;;;;;;;;;;5111018;27;20595;-86
2021/09/21 01:20:29;;;;;;;2.22;2.03;;;;;;;;;;5115092;27;20410;-88
2021/09/21 01:22:58;;;;;;;2.28;2.08;;;;;;;;;;5108871;27;20409;-87
2021/09/21 01:25:24;;;;;;;2.20;2.00;;;;;;;;;;5108013;27;20418;-87
2021/09/21 01:27:51;;;;;;;2.15;1.65;;;;;;;;;;5114288;27;20410;-87
2021/09/21 01:30:18;;;;;;;3.20;2.20;;;;;;;;;;5113255;27;20407;-87
2021/09/21 01:32:45;;;;;;;2.15;1.95;;;;;;;;;;5109894;28;20402;-87
2021/09/21 01:35:15;;;;;;;2.40;2.20;;;;;;;;;;5121368;27;21284;-88
2021/09/21 01:37:46;;;;;;;2.92;2.10;;;;;;;;;;5135619;27;20414;-87
2021/09/21 01:40:15;;;;;;;2.30;2.10;;;;;;;;;;5125338;27;20429;-87
2021/09/21 01:42:44;;;;;;;2.50;2.07;;;;;;;;;;5104062;27;20418;-88
2021/09/21 01:45:12;;;;;;;4.00;2.15;;;;;;;;;;5103378;27;20390;-87
2021/09/21 01:47:40;;;;;;;2.20;2.00;;;;;;;;;;5107822;27;20395;-86
2021/09/21 01:52:56;;;;;;;3.10;2.33;;;;;;;;;;5099101;27;20487;-88
2021/09/21 01:58:46;;;;;;;3.10;2.20;;;;;;;;;;5109177;27;20910;-87
2021/09/21 02:01:07;;;;;;;2.90;2.20;;;;;;;;;;5107915;27;20391;-88
2021/09/21 02:03:34;;;;;;;3.97;2.35;;;;;;;;;;5104854;28;20398;-87
2021/09/21 02:06:01;;;;;;;2.60;2.40;;;;;;;;;;5100380;27;20404;-87
2021/09/21 02:08:28;;;;;;;2.65;2.45;;;;;;;;;;5105517;28;20398;-87
2021/09/21 02:10:56;;;;;;;2.57;2.37;;;;;;;;;;5100868;28;20884;-87
2021/09/21 02:13:23;;;;;;;2.97;2.67;;;;;;;;;;5104473;28;20406;-87
2021/09/21 02:15:50;;;;;;;2.67;2.40;;;;;;;;;;5103771;28;20754;-87
2021/09/21 02:18:17;;;;;;;2.85;2.60;;;;;;;;;;5099998;28;22156;-87
2021/09/21 02:20:44;;;;;;;2.70;2.50;;;;;;;;;;5105201;28;20394;-87
2021/09/21 02:23:11;;;;;;;2.50;2.30;;;;;;;;;;5101085;28;20439;-86
2021/09/21 02:25:38;;;;;;;2.42;2.22;;;;;;;;;;5098652;28;20403;-87
2021/09/21 02:28:06;;;;;;;3.05;2.40;;;;;;;;;;5104866;28;20728;-87
2021/09/21 02:30:35;;;;;;;2.90;2.30;;;;;;;;;;5095101;28;20395;-87
2021/09/21 02:33:02;;;;;;;2.70;2.50;;;;;;;;;;5104544;28;20410;-87
2021/09/21 02:35:29;;;;;;;3.45;2.78;;;;;;;;;;5099782;28;20402;-87
2021/09/21 02:37:55;;;;;;;2.53;2.33;;;;;;;;;;5104800;28;20409;-87
2021/09/21 02:40:25;;;;;;;4.05;2.60;;;;;;;;;;5104619;28;20413;-86
2021/09/21 02:42:52;;;;;;;3.25;2.42;;;;;;;;;;5098807;28;20403;-88
2021/09/21 02:45:20;;;;;;;2.90;2.65;;;;;;;;;;5100651;28;20407;-87
2021/09/21 02:47:47;;;;;;;2.90;2.50;;;;;;;;;;5101868;27;20426;-87
2021/09/21 02:50:14;;;;;;;3.05;2.65;;;;;;;;;;5103344;28;20402;-87
2021/09/21 02:52:41;;;;;;;2.60;2.40;;;;;;;;;;5104190;28;21179;-87
2021/09/21 02:55:09;;;;;;;2.83;2.63;;;;;;;;;;5103244;28;20402;-87
2021/09/21 02:57:36;;;;;;;2.58;2.38;;;;;;;;;;5101913;28;20448;-88
2021/09/21 03:00:05;;;;;;;4.20;2.80;;;;;;;;;;5104351;28;20419;-88
2021/09/21 03:02:34;;;;;;;3.15;2.90;;;;;;;;;;5095691;28;20391;-86
2021/09/21 03:05:04;;;;;;;3.30;2.57;;;;;;;;;;5104623;28;20414;-87
2021/09/21 03:07:35;;;;;;;3.33;2.65;;;;;;;;;;5096934;28;20477;-87
2021/09/21 03:10:15;;;;;;;3.67;2.58;;;;;;;;;;5104557;28;20403;-87
2021/09/21 03:18:10;;;;;;;2.70;2.50;;;;;;;;;;5104223;28;20471;-88
2021/09/21 03:20:37;;;;;;;3.75;2.92;;;;;;;;;;5101728;28;20406;-87
2021/09/21 03:23:04;;;;;;;3.70;2.80;;;;;;;;;;5101424;28;20399;-87
2021/09/21 03:25:31;;;;;;;2.72;2.30;;;;;;;;;;5102433;28;20390;-87
2021/09/21 03:27:59;;;;;;;2.83;2.60;;;;;;;;;;5098073;28;20415;-87
2021/09/21 03:30:26;;;;;;;3.15;2.40;;;;;;;;;;5103198;28;20490;-87
2021/09/21 03:32:53;;;;;;;4.45;2.80;;;;;;;;;;5103847;28;20403;-87
2021/09/21 03:35:21;;;;;;;3.05;2.75;;;;;;;;;;5102362;28;20440;-87
2021/09/21 03:37:48;;;;;;;2.75;2.50;;;;;;;;;;5101033;28;20404;-87
2021/09/21 03:40:15;;;;;;;3.00;2.70;;;;;;;;;;5097282;28;20492;-87
2021/09/21 03:42:42;;;;;;;2.78;2.47;;;;;;;;;;5103246;28;20407;-88
2021/09/21 03:45:10;;;;;;;3.10;2.63;;;;;;;;;;5096815;28;20396;-88
2021/09/21 03:47:37;;;;;;;3.20;2.50;;;;;;;;;;5106021;27;20393;-86
2021/09/21 03:50:05;;;;;;;2.97;2.50;;;;;;;;;;5095870;28;20396;-88
2021/09/21 03:52:33;;;;;;;3.80;2.90;;;;;;;;;;5106121;28;20871;-87
2021/09/21 03:55:00;;;;;;;2.93;2.73;;;;;;;;;;5104513;28;20403;-88
2021/09/21 03:57:27;;;;;;;3.30;2.95;;;;;;;;;;5104257;28;20407;-87
2021/09/21 03:59:54;;;;;;;4.00;2.90;;;;;;;;;;5105493;28;20410;-87
2021/09/21 04:02:21;;;;;;;3.13;2.83;;;;;;;;;;5103907;28;20406;-87
2021/09/21 04:04:48;;;;;;;7.10;2.83;;;;;;;;;;5096259;28;20408;-87
2021/09/21 04:07:15;;;;;;;3.40;3.10;;;;;;;;;;5098053;28;20419;-87
2021/09/21 04:09:43;;;;;;;3.93;3.00;;;;;;;;;;5106248;27;20406;-88
2021/09/21 04:12:10;;;;;;;2.90;2.70;;;;;;;;;;5096178;28;20402;-88
2021/09/21 04:14:37;;;;;;;7.05;3.10;;;;;;;;;;5103056;27;20402;-84
2021/09/21 04:17:04;;;;;;;3.50;2.80;;;;;;;;;;5097834;28;20922;-87
2021/09/21 04:19:31;;;;;;;3.40;2.72;;;;;;;;;;5106069;28;20418;-88
2021/09/21 04:21:58;;;;;;;3.22;2.92;;;;;;;;;;5104728;28;20404;-87
2021/09/21 04:24:24;;;;;;;3.22;2.92;;;;;;;;;;5104809;28;20398;-87
2021/09/21 04:26:53;;;;;;;2.70;2.50;;;;;;;;;;5107796;28;20398;-87
2021/09/21 04:29:20;;;;;;;3.47;3.17;;;;;;;;;;5103011;27;20944;-87
2021/09/21 04:31:49;;;;;;;3.33;2.72;;;;;;;;;;5110181;27;20398;-87
2021/09/21 04:34:16;;;;;;;4.00;3.00;;;;;;;;;;5104274;27;20490;-87
2021/09/21 04:36:44;;;;;;;5.10;2.80;;;;;;;;;;5108686;27;20606;-87
2021/09/21 04:39:10;;;;;;;4.10;2.70;;;;;;;;;;5107014;27;20409;-87
2021/09/21 04:41:39;;;;;;;3.17;2.87;;;;;;;;;;5107562;27;20410;-87
2021/09/21 04:44:08;;;;;;;3.45;2.70;;;;;;;;;;5107693;27;20399;-86
2021/09/21 04:46:35;;;;;;;2.78;2.58;;;;;;;;;;5105768;27;20398;-87
2021/09/21 04:49:04;;;;;;;2.90;2.50;;;;;;;;;;5101781;27;20398;-87
2021/09/21 04:51:31;;;;;;;2.72;2.47;;;;;;;;;;5109192;27;20398;-87
2021/09/21 04:53:58;;;;;;;2.85;2.60;;;;;;;;;;5111985;27;20404;-87
2021/09/21 04:56:25;;;;;;;2.90;2.60;;;;;;;;;;5110496;27;20432;-87
2021/09/21 04:58:52;;;;;;;2.63;2.42;;;;;;;;;;5103106;28;20420;-87
2021/09/21 05:01:20;;;;;;;3.17;2.40;;;;;;;;;;5104040;27;20398;-87
2021/09/21 05:03:47;;;;;;;3.97;2.40;;;;;;;;;;5122831;27;20387;-87
2021/09/21 05:06:14;;;;;;;2.55;2.33;;;;;;;;;;5133046;27;20428;-88
2021/09/21 05:08:43;;;;;;;5.38;2.55;;;;;;;;;;5117750;27;20473;-89
2021/09/21 05:11:10;;;;;;;3.25;2.67;;;;;;;;;;5106792;27;20893;-87
2021/09/21 05:13:37;;;;;;;2.55;2.35;;;;;;;;;;5108222;27;20404;-88
2021/09/21 05:16:04;;;;;;;3.10;2.37;;;;;;;;;;5102782;27;20399;-88
2021/09/21 05:18:33;;;;;;;2.75;2.40;;;;;;;;;;5103709;27;20402;-87
2021/09/21 05:20:59;;;;;;;3.10;2.42;;;;;;;;;;5111533;27;20401;-86
2021/09/21 05:23:26;;;;;;;2.72;2.42;;;;;;;;;;5103656;27;20406;-87
2021/09/21 05:25:53;;;;;;;4.55;2.40;;;;;;;;;;5106572;27;20804;-87
2021/09/21 05:28:20;;;;;;;4.18;2.70;;;;;;;;;;5100331;27;20930;-87
2021/09/21 05:30:47;;;;;;;3.00;2.70;;;;;;;;;;5101376;27;20774;-88
2021/09/21 05:33:14;;;;;;;2.80;2.50;;;;;;;;;;5098714;27;20419;-88
2021/09/21 05:35:42;;;;;;;2.50;2.30;;;;;;;;;;5105467;27;20398;-87
2021/09/21 05:38:09;;;;;;;3.28;2.50;;;;;;;;;;5100480;27;20400;-89
2021/09/21 05:40:36;;;;;;;2.60;2.38;;;;;;;;;;5101672;27;20427;-87
2021/09/21 05:43:03;;;;;;;3.15;2.80;;;;;;;;;;5104220;27;21124;-87
2021/09/21 05:45:30;;;;;;;3.35;2.60;;;;;;;;;;5110669;27;20395;-87
2021/09/21 05:47:56;;;;;;;2.87;2.57;;;;;;;;;;5113370;27;20500;-86
2021/09/21 05:50:23;;;;;;;3.10;2.80;;;;;;;;;;5095918;27;20411;-87
2021/09/21 05:52:52;;;;;;;3.42;2.70;;;;;;;;;;5118550;27;20391;-87
2021/09/21 05:55:19;;;;;;;2.92;2.60;;;;;;;;;;5105516;27;20705;-87
2021/09/21 05:57:46;;;;;;;4.07;2.75;;;;;;;;;;5106269;27;20889;-88
2021/09/21 06:00:14;;;;;;;4.20;2.80;;;;;;;;;;5106573;27;20430;-87
2021/09/21 06:02:41;;;;;;;3.73;2.90;;;;;;;;;;5103402;27;20416;-87
2021/09/21 06:05:09;;;;;;;3.28;2.83;;;;;;;;;;5097524;27;20400;-87
2021/09/21 06:07:43;;;;;;;4.15;3.22;;;;;;;;;;5111632;27;20403;-87
2021/09/21 06:10:12;;;;;;;3.70;3.13;;;;;;;;;;5104557;27;20404;-88
2021/09/21 06:12:38;;;;;;;5.75;3.08;;;;;;;;;;5110593;27;20404;-87
2021/09/21 06:15:06;;;;;;;3.75;3.05;;;;;;;;;;5105003;27;20435;-88
2021/09/21 06:17:33;;;;;;;3.47;2.90;;;;;;;;;;5110562;27;20399;-87
2021/09/21 06:20:00;;;;;;;3.65;2.90;;;;;;;;;;5110511;27;20631;-87
2021/09/21 06:22:27;;;;;;;4.50;3.20;;;;;;;;;;5106704;27;20784;-88
2021/09/21 06:24:54;;;;;;;3.93;2.90;;;;;;;;;;5112840;27;20460;-87
2021/09/21 06:27:23;;;;;;;3.15;2.85;;;;;;;;;;5106451;27;20444;-87
2021/09/21 06:29:50;;;;;;;3.42;2.80;;;;;;;;;;5117100;27;20597;-87
2021/09/21 06:32:17;;;;;;;3.42;3.13;;;;;;;;;;5108830;27;20403;-87
2021/09/21 06:34:43;;;;;;;3.22;2.85;;;;;;;;;;5104151;27;20400;-87
2021/09/21 06:37:11;;;;;;;3.10;2.63;;;;;;;;;;5111156;27;20396;-87
2021/09/21 06:39:38;;;;;;;3.45;2.92;;;;;;;;;;5112842;27;20769;-87
2021/09/21 06:42:05;;;;;;;3.30;2.73;;;;;;;;;;5112668;27;20757;-87
2021/09/21 06:44:33;;;;;;;4.93;2.97;;;;;;;;;;5101304;27;20770;-88
2021/09/21 06:47:00;;;;;;;2.97;2.67;;;;;;;;;;5113833;27;20405;-87
2021/09/21 06:49:29;;;;;;;3.75;3.00;;;;;;;;;;5101856;27;20391;-88
2021/09/21 06:51:56;;;;;;;4.75;3.05;;;;;;;;;;5113241;27;20397;-87
2021/09/21 06:54:23;;;;;;;4.25;3.10;;;;;;;;;;5113979;27;20410;-87
2021/09/21 06:56:49;;;;;;;4.88;2.60;;;;;;;;;;5107278;27;20411;-87
2021/09/21 06:59:17;;;;;;;4.25;3.08;;;;;;;;;;5111661;27;20397;-88
2021/09/21 07:01:45;;;;;;;3.90;2.67;;;;;;;;;;5110692;27;20406;-87
2021/09/21 07:04:12;;;;;;;3.20;2.70;;;;;;;;;;5113519;27;20421;-87
2021/09/21 07:06:39;;;;;;;3.80;2.65;;;;;;;;;;5112605;27;20798;-87
2021/09/21 07:09:06;;;;;;;4.00;2.80;;;;;;;;;;5104134;27;20396;-88
2021/09/21 07:11:33;;;;;;;2.80;2.47;;;;;;;;;;5114434;27;20394;-87
2021/09/21 07:14:00;;;;;;;3.40;2.60;;;;;;;;;;5105991;27;20403;-88
2021/09/21 07:16:27;;;;;;;4.30;2.40;;;;;;;;;;5110961;27;20412;-87
2021/09/21 07:18:55;;;;;;;4.32;2.53;;;;;;;;;;5108901;27;20391;-88
2021/09/21 07:21:22;;;;;;;3.53;2.55;;;;;;;;;;5113585;27;20747;-87
2021/09/21 07:23:49;;;;;;;3.10;2.70;;;;;;;;;;5106853;27;20404;-87
2021/09/21 07:26:17;;;;;;;3.03;2.30;;;;;;;;;;5114137;27;20408;-87
2021/09/21 07:28:44;;;;;;;9.18;3.90;;;;;;;;;;5112127;27;20504;-87
2021/09/21 07:31:11;;;;;;;2.88;2.58;;;;;;;;;;5110375;27;20395;-87
2021/09/21 07:33:38;;;;;;;3.03;2.58;;;;;;;;;;5113416;27;20515;-87
2021/09/21 07:36:06;;;;;;;3.92;2.50;;;;;;;;;;5111312;27;20835;-87
2021/09/21 07:38:33;;;;;;;4.50;2.75;;;;;;;;;;5116803;27;20397;-88
2021/09/21 07:41:01;;;;;;;3.47;2.60;;;;;;;;;;5105692;27;20896;-87
2021/09/21 07:43:28;;;;;;;2.55;2.30;;;;;;;;;;5113468;27;20593;-87
2021/09/21 07:45:55;;;;;;;4.35;2.50;;;;;;;;;;5109637;27;20393;-87
2021/09/21 07:48:22;;;;;;;2.67;2.47;;;;;;;;;;5110179;27;20409;-88
2021/09/21 07:50:51;;;;;;;3.85;2.50;;;;;;;;;;5112483;27;21186;-87
2021/09/21 07:53:19;;;;;;;2.67;2.40;;;;;;;;;;5112718;27;20562;-88
2021/09/21 07:55:46;;;;;;;2.70;2.35;;;;;;;;;;5110578;27;20401;-87
2021/09/21 07:58:13;;;;;;;2.90;2.37;;;;;;;;;;5105484;27;20485;-88
2021/09/21 08:00:40;;;;;;;2.77;2.20;;;;;;;;;;5108253;27;20964;-87
2021/09/21 08:03:07;;;;;;;2.42;2.22;;;;;;;;;;5109593;27;20404;-87
2021/09/21 08:05:35;;;;;;;2.72;2.40;;;;;;;;;;5104079;27;20408;-87
2021/09/21 08:08:02;;;;;;;3.00;2.42;;;;;;;;;;5106069;27;20452;-88
2021/09/21 08:10:30;;;;;;;3.40;2.40;;;;;;;;;;5106384;27;20401;-87
2021/09/21 08:12:57;;;;;;;3.47;2.50;;;;;;;;;;5108493;27;20841;-87
2021/09/21 08:15:26;;;;;;;2.60;2.40;;;;;;;;;;5104305;27;20465;-88
2021/09/21 08:17:53;;;;;;;2.90;2.60;;;;;;;;;;5112013;27;20397;-88
2021/09/21 08:20:20;;;;;;;3.22;2.45;;;;;;;;;;5102799;27;20416;-88
2021/09/21 08:22:47;;;;;;;3.03;2.67;;;;;;;;;;5104938;28;20392;-88
2021/09/21 08:25:14;;;;;;;3.10;2.42;;;;;;;;;;5107938;27;20423;-88
2021/09/21 08:27:43;;;;;;;4.72;2.50;;;;;;;;;;5107242;28;20410;-86
2021/09/21 08:30:11;;;;;;;3.42;2.60;;;;;;;;;;5111336;27;20426;-88
2021/09/21 08:32:38;;;;;;;3.65;2.60;;;;;;;;;;5103368;28;20485;-87
2021/09/21 08:35:05;;;;;;;3.17;2.88;;;;;;;;;;5108366;28;20405;-85
2021/09/21 08:37:33;;;;;;;2.87;2.60;;;;;;;;;;5107958;27;20389;-87
2021/09/21 08:39:59;;;;;;;2.60;2.30;;;;;;;;;;5098852;28;20410;-86
2021/09/21 08:42:27;;;;;;;2.78;2.50;;;;;;;;;;5109914;28;20408;-87
2021/09/21 08:44:55;;;;;;;2.67;2.42;;;;;;;;;;5109760;28;20454;-87
2021/09/21 08:47:22;;;;;;;3.63;2.35;;;;;;;;;;5112676;27;20402;-86
2021/09/21 08:49:49;;;;;;;3.95;2.30;;;;;;;;;;5106595;28;20396;-87
2021/09/21 08:52:16;;;;;;;3.38;2.50;;;;;;;;;;5114531;28;20399;-86
2021/09/21 08:54:43;;;;;;;2.58;2.38;;;;;;;;;;5111524;27;20895;-86
2021/09/21 08:57:11;;;;;;;2.72;2.50;;;;;;;;;;5105052;28;20748;-87
2021/09/21 08:59:38;;;;;;;3.55;2.58;;;;;;;;;;5108370;28;20396;-86
2021/09/21 09:02:09;;;;;;;3.33;2.60;;;;;;;;;;5100524;28;20795;-87
2021/09/21 09:04:37;;;;;;;3.83;2.80;;;;;;;;;;5102317;28;20400;-87
2021/09/21 09:07:04;;;;;;;3.30;2.67;;;;;;;;;;5102169;28;20754;-89
2021/09/21 09:09:34;;;;;;;4.50;2.60;;;;;;;;;;5106166;28;20891;-87
2021/09/21 09:12:04;;;;;;;4.85;2.47;;;;;;;;;;5113910;27;20426;-88
2021/09/21 09:14:33;;;;;;;2.80;2.50;;;;;;;;;;5121337;27;20407;-87
2021/09/21 09:17:02;;;;;;;3.25;2.92;;;;;;;;;;5117291;27;20404;-88
2021/09/21 09:19:35;;;;;;;3.67;2.50;;;;;;;;;;5113987;27;20393;-87
2021/09/21 09:22:07;;;;;;;2.90;2.63;;;;;;;;;;5098944;27;20401;-87
2021/09/21 09:24:46;;;;;;;4.78;2.85;;;;;;;;;;5111960;27;20454;-87
2021/09/21 09:27:14;;;;;;;3.42;3.00;;;;;;;;;;5110964;27;20398;-87
2021/09/21 09:29:53;;;;;;;3.60;2.40;;;;;;;;;;5109020;27;20441;-87
2021/09/21 09:32:20;;;;;;;2.92;2.47;;;;;;;;;;5107071;27;20398;-87
2021/09/21 09:34:48;;;;;;;3.50;2.38;;;;;;;;;;5109065;27;20394;-87
2021/09/21 09:37:17;;;;;;;3.23;2.50;;;;;;;;;;5114637;27;20394;-87
2021/09/21 09:39:46;;;;;;;2.67;2.25;;;;;;;;;;5108582;27;20392;-87
2021/09/21 09:42:13;;;;;;;2.22;2.03;;;;;;;;;;5112964;27;20433;-87
2021/09/21 09:44:42;;;;;;;3.15;2.20;;;;;;;;;;5109017;27;20411;-87
2021/09/21 09:47:10;;;;;;;2.30;2.10;;;;;;;;;;5102427;27;20432;-87
2021/09/21 09:49:39;;;;;;;2.60;2.25;;;;;;;;;;5101825;27;20385;-87
2021/09/21 09:52:09;;;;;;;3.55;2.33;;;;;;;;;;5105386;27;20402;-88
2021/09/21 09:54:37;;;;;;;3.30;2.53;;;;;;;;;;5106096;27;20476;-87
2021/09/21 09:57:05;;;;;;;2.47;2.10;;;;;;;;;;5102826;27;20898;-88
2021/09/21 09:59:31;;;;;;;4.00;2.58;;;;;;;;;;5107595;27;20688;-87
2021/09/21 10:01:59;;;;;;;3.23;2.23;;;;;;;;;;5109241;27;20421;-87
2021/09/21 10:04:26;;;;;;;3.30;2.55;;;;;;;;;;5107463;27;20400;-87
2021/09/21 10:06:53;;;;;;;4.28;2.50;;;;;;;;;;5107450;27;20863;-87
2021/09/21 10:09:21;;;;;;;4.80;2.80;;;;;;;;;;5115071;27;20394;-87
2021/09/21 10:11:51;;;;;;;4.73;2.53;;;;;;;;;;5106184;27;20495;-87
2021/09/21 10:14:20;;;;;;;3.97;2.43;;;;;;;;;;5104467;27;20396;-87
2021/09/21 10:16:51;;;;;;;2.63;2.30;;;;;;;;;;5114692;27;20395;-87
2021/09/21 10:19:22;;;;;;;4.88;2.50;;;;;;;;;;5111046;27;20404;-87
2021/09/21 10:21:50;;;;;;;5.88;2.17;;;;;;;;;;5109002;27;20491;-87
2021/09/21 10:24:17;;;;;;;4.07;2.50;;;;;;;;;;5107483;27;20402;-87
2021/09/21 10:26:49;;;;;;;4.20;2.30;;;;;;;;;;5112849;27;20732;-87
2021/09/21 10:29:17;;;;;;;2.43;2.10;;;;;;;;;;5106520;27;20408;-87
2021/09/21 10:31:44;;;;;;;4.35;2.00;;;;;;;;;;5111070;27;20889;-87
2021/09/21 10:34:13;;;;;;;2.00;1.80;;;;;;;;;;5108324;27;20395;-87
2021/09/21 10:36:47;;;;;;;2.53;2.33;;;;;;;;;;5112419;27;20389;-87
2021/09/21 10:39:15;;;;;;;2.50;2.30;;;;;;;;;;5107564;27;20391;-88
2021/09/21 10:41:52;;;;;;;3.08;2.15;;;;;;;;;;5104844;27;21012;-87
2021/09/21 10:44:20;;;;;;;2.10;1.90;;;;;;;;;;5105764;27;20415;-87
2021/09/21 10:46:50;;;;;;;2.83;2.30;;;;;;;;;;5109607;27;20683;-86
2021/09/21 10:49:32;;;;;;;3.50;2.00;;;;;;;;;;5105753;27;20406;-87
2021/09/21 10:52:01;;;;;;;3.30;2.28;;;;;;;;;;5114076;27;20405;-86
2021/09/21 10:54:37;;;;;;;2.55;2.30;;;;;;;;;;5106552;27;20406;-87
2021/09/21 10:57:10;;;;;;;2.67;2.08;;;;;;;;;;5104251;27;20423;-87
2021/09/21 10:59:37;;;;;;;2.72;2.20;;;;;;;;;;5112016;27;20489;-87
2021/09/21 11:02:06;;;;;;;3.25;2.58;;;;;;;;;;5105872;27;20431;-87
2021/09/21 11:04:44;;;;;;;3.92;1.95;;;;;;;;;;5107349;27;20419;-87
2021/09/21 11:07:13;;;;;;;2.45;2.22;;;;;;;;;;5100815;27;20400;-86
2021/09/21 11:09:40;;;;;;;2.40;2.20;;;;;;;;;;5112966;27;20404;-85
2021/09/21 11:12:10;;;;;;;3.17;2.53;;;;;;;;;;5094076;27;20406;-86
2021/09/21 11:14:39;;;;;;;3.58;2.20;;;;;;;;;;5100714;27;20399;-88
2021/09/21 11:17:08;;;;;;;2.90;2.28;;;;;;;;;;5109760;27;20389;-87
2021/09/21 11:19:36;;;;;;;4.10;2.30;;;;;;;;;;5094591;27;20759;-87
2021/09/21 11:22:04;;;;;;;2.35;1.88;;;;;;;;;;5103114;27;20417;-86
2021/09/21 11:24:32;;;;;;;4.53;2.10;;;;;;;;;;5099335;27;20605;-88
2021/09/21 11:27:00;;;;;;;3.17;1.85;;;;;;;;;;5100037;27;20397;-87
2021/09/21 11:29:29;;;;;;;2.70;1.92;;;;;;;;;;5108777;27;20411;-87
2021/09/21 11:31:56;;;;;;;2.10;1.90;;;;;;;;;;5094545;27;20905;-87
2021/09/21 11:34:29;;;;;;;3.67;2.10;;;;;;;;;;5093262;27;20396;-87
2021/09/21 11:36:56;;;;;;;2.38;1.85;;;;;;;;;;5097212;27;20398;-87
2021/09/21 11:39:29;;;;;;;3.40;1.80;;;;;;;;;;5094351;27;20411;-86
2021/09/21 11:41:58;;;;;;;2.00;1.80;;;;;;;;;;5098322;27;20427;-86
2021/09/21 11:44:25;;;;;;;3.23;2.17;;;;;;;;;;5095180;27;20414;-86
2021/09/21 11:47:03;;;;;;;2.65;2.20;;;;;;;;;;5093541;27;20411;-86
2021/09/21 11:49:30;;;;;;;2.60;2.15;;;;;;;;;;5098100;27;20411;-87
2021/09/21 11:51:56;;;;;;;3.60;2.20;;;;;;;;;;5103965;27;20406;-87
2021/09/21 11:54:24;;;;;;;2.35;2.00;;;;;;;;;;5092052;27;20418;-87
2021/09/21 11:56:54;;;;;;;2.03;1.83;;;;;;;;;;5089581;27;20422;-87
2021/09/21 11:59:21;;;;;;;3.08;2.05;;;;;;;;;;5095981;27;20442;-86
2021/09/21 12:01:50;;;;;;;2.00;1.90;;;;;;;;;;5096205;27;20410;-87
2021/09/21 12:04:19;;;;;;;2.10;1.90;;;;;;;;;;5099658;27;20398;-87
2021/09/21 12:06:46;;;;;;;2.00;1.80;;;;;;;;;;5100227;27;20504;-87
2021/09/21 12:09:14;;;;;;;2.58;2.15;;;;;;;;;;5080521;28;20532;-87
2021/09/21 12:11:45;;;;;;;2.20;2.00;;;;;;;;;;5103425;27;20398;-87
2021/09/21 12:14:12;;;;;;;2.60;1.80;;;;;;;;;;5096715;27;20430;-87
2021/09/21 12:16:39;;;;;;;3.90;1.90;;;;;;;;;;5096866;27;20765;-87
2021/09/21 12:19:16;;;;;;;1.85;1.75;;;;;;;;;;5102183;28;20395;-87
2021/09/21 12:21:46;;;;;;;2.10;1.90;;;;;;;;;;5099086;28;20403;-87
2021/09/21 12:24:13;;;;;;;2.40;1.90;;;;;;;;;;5099309;27;20419;-86
2021/09/21 12:26:40;;;;;;;2.20;1.85;;;;;;;;;;5098214;28;20862;-87
2021/09/21 12:29:08;;;;;;;1.90;1.77;;;;;;;;;;5095873;28;20391;-87
2021/09/21 12:31:37;;;;;;;1.98;1.77;;;;;;;;;;5101963;28;20493;-87
2021/09/21 12:34:14;;;;;;;2.28;2.08;;;;;;;;;;5093990;28;20397;-87
2021/09/21 12:36:45;;;;;;;2.15;1.70;;;;;;;;;;5094319;28;20394;-87
2021/09/21 12:39:15;;;;;;;2.03;1.83;;;;;;;;;;5098812;28;20469;-87
2021/09/21 12:41:47;;;;;;;1.90;1.80;;;;;;;;;;5100881;28;20418;-87
2021/09/21 12:44:16;;;;;;;2.00;1.80;;;;;;;;;;5103548;28;20816;-87
2021/09/21 12:46:44;;;;;;;2.10;1.90;;;;;;;;;;5101579;27;20409;-87
2021/09/21 12:49:15;;;;;;;3.27;2.10;;;;;;;;;;5106329;27;20425;-87
2021/09/21 12:51:47;;;;;;;2.40;2.20;;;;;;;;;;5102384;27;20443;-87
2021/09/21 12:54:16;;;;;;;2.10;1.90;;;;;;;;;;5104451;27;20425;-89
2021/09/21 12:56:44;;;;;;;1.97;1.87;;;;;;;;;;5095305;27;20405;-87
2021/09/21 12:59:13;;;;;;;2.20;2.00;;;;;;;;;;5102958;27;20397;-88
2021/09/21 13:01:41;;;;;;;2.30;2.10;;;;;;;;;;5100927;27;20418;-88
2021/09/21 13:04:08;;;;;;;2.30;2.10;;;;;;;;;;5098552;27;20495;-88
2021/09/21 13:06:35;;;;;;;3.15;2.40;;;;;;;;;;5098680;28;20402;-87
2021/09/21 13:09:06;;;;;;;2.80;2.22;;;;;;;;;;5101571;27;20391;-89
2021/09/21 13:11:33;;;;;;;3.00;2.70;;;;;;;;;;5098977;27;20778;-88
2021/09/21 13:14:01;;;;;;;2.28;2.08;;;;;;;;;;5105710;27;20425;-88
2021/09/21 13:16:28;;;;;;;2.85;2.15;;;;;;;;;;5106753;27;20390;-87
2021/09/21 13:18:55;;;;;;;2.63;2.00;;;;;;;;;;5106856;27;20413;-87
2021/09/21 13:21:23;;;;;;;2.50;2.30;;;;;;;;;;5106136;27;20416;-87
2021/09/21 13:23:50;;;;;;;2.20;2.00;;;;;;;;;;5104014;27;20404;-87
2021/09/21 13:26:19;;;;;;;2.40;2.10;;;;;;;;;;5110169;27;20397;-86
2021/09/21 13:28:46;;;;;;;2.37;2.17;;;;;;;;;;5106529;27;20400;-87
2021/09/21 13:31:13;;;;;;;2.78;2.13;;;;;;;;;;5111307;27;20859;-86
2021/09/21 13:33:40;;;;;;;2.60;2.40;;;;;;;;;;5105269;27;20683;-87
2021/09/21 13:36:08;;;;;;;2.75;2.08;;;;;;;;;;5105965;27;20502;-87
2021/09/21 13:38:34;;;;;;;3.78;2.28;;;;;;;;;;5115336;27;20405;-88
2021/09/21 13:41:01;;;;;;;3.97;2.40;;;;;;;;;;5113065;27;20410;-86
2021/09/21 13:43:30;;;;;;;2.30;2.08;;;;;;;;;;5111849;27;21165;-86
2021/09/21 13:45:57;;;;;;;2.63;2.43;;;;;;;;;;5107351;27;20417;-86
2021/09/21 13:48:24;;;;;;;2.50;2.30;;;;;;;;;;5106901;27;20500;-86
2021/09/21 13:50:51;;;;;;;2.05;1.95;;;;;;;;;;5106298;27;20403;-88
2021/09/21 13:53:18;;;;;;;2.30;2.10;;;;;;;;;;5108067;27;20404;-86
2021/09/21 13:55:45;;;;;;;2.72;2.20;;;;;;;;;;5112596;27;20415;-88
2021/09/21 13:58:12;;;;;;;2.70;2.20;;;;;;;;;;5115164;27;20928;-88
2021/09/21 14:00:40;;;;;;;8.00;2.30;;;;;;;;;;5115934;27;20397;-83
2021/09/21 14:03:09;;;;;;;6.53;2.25;;;;;;;;;;5116048;27;20417;-86
2021/09/21 14:05:35;;;;;;;3.53;2.47;;;;;;;;;;5116333;27;20397;-87
2021/09/21 14:08:03;;;;;;;3.00;2.22;;;;;;;;;;5098764;27;20402;-85
2021/09/21 14:10:30;;;;;;;2.65;2.00;;;;;;;;;;5093439;28;20395;-84
2021/09/21 14:12:58;;;;;;;2.45;2.10;;;;;;;;;;5099848;27;20478;-85
2021/09/21 14:15:25;;;;;;;2.20;1.90;;;;;;;;;;5092832;27;20965;-86
2021/09/21 14:17:53;;;;;;;1.83;1.73;;;;;;;;;;5095036;27;20894;-85
2021/09/21 14:20:24;;;;;;;1.90;1.80;;;;;;;;;;5094819;27;20411;-87
2021/09/21 14:22:55;;;;;;;3.08;1.73;;;;;;;;;;5093963;27;20900;-85
2021/09/21 14:25:23;;;;;;;2.13;1.80;;;;;;;;;;5097079;27;20422;-84
2021/09/21 14:27:49;;;;;;;2.08;1.83;;;;;;;;;;5094496;27;20404;-85
2021/09/21 14:30:20;;;;;;;2.20;2.00;;;;;;;;;;5092790;27;20419;-84
2021/09/21 14:32:47;;;;;;;2.08;1.77;;;;;;;;;;5092691;27;20391;-86
2021/09/21 14:35:19;;;;;;;2.38;1.90;;;;;;;;;;5102689;27;20409;-85
2021/09/21 14:37:46;;;;;;;1.98;1.88;;;;;;;;;;5108367;27;20408;-85
2021/09/21 14:40:15;;;;;;;2.00;1.70;;;;;;;;;;5110113;27;20419;-85
2021/09/21 14:42:42;;;;;;;3.08;2.00;;;;;;;;;;5110987;27;20410;-85
2021/09/21 14:45:11;;;;;;;2.05;1.80;;;;;;;;;;5109331;27;20550;-85
2021/09/21 14:47:38;;;;;;;2.30;2.00;;;;;;;;;;5108047;27;20799;-85
2021/09/21 14:50:08;;;;;;;2.10;1.90;;;;;;;;;;5107148;27;20397;-86
2021/09/21 14:52:37;;;;;;;2.50;1.90;;;;;;;;;;5108603;27;20459;-85
2021/09/21 14:55:05;;;;;;;2.00;1.80;;;;;;;;;;5109356;27;20393;-85
2021/09/21 14:57:32;;;;;;;2.42;1.90;;;;;;;;;;5111380;27;20406;-85
2021/09/21 14:59:59;;;;;;;2.20;2.00;;;;;;;;;;5111108;27;20394;-86